Date,TemperatureHighF,TemperatureAvgF,TemperatureLowF,DewpointHighF,DewpointAvgF,DewpointLowF,HumidityHigh,HumidityAvg,HumidityLow,PressureMaxIn,PressureMinIn,WindSpeedMaxMPH,WindSpeedAvgMPH,GustSpeedMaxMPH,PrecipitationSumIn
2013-4-1,58.9,50.9,44.9,44.4,40.0,31.4,82,67,53,30.11,29.91,10,4,17,0.00
2013-4-2,44.6,40.4,37.7,38.5,35.5,29.2,93,84,57,30.21,30.11,8,4,12,0.52
2013-4-3,44.0,40.9,39.1,38.7,34.6,30.4,93,78,64,30.22,30.13,6,3,12,0.53
2013-4-4,60.9,50.0,38.9,40.9,36.8,32.0,93,64,37,30.17,30.05,6,2,13,0.28
2013-4-5,70.6,54.5,40.4,44.8,41.2,37.7,91,64,35,30.17,29.87,8,2,12,0.00
2013-4-6,78.2,66.5,56.8,52.6,49.0,44.5,70,55,39,29.87,29.70,11,5,23,0.00
2013-4-7,65.8,63.3,58.0,59.1,56.4,52.4,87,78,64,29.80,29.64,10,4,17,0.00
2013-4-8,74.3,68.2,61.8,62.2,59.8,57.5,92,75,65,29.68,29.56,10,6,19,0.00
2013-4-9,78.8,70.9,48.3,63.8,60.4,41.6,80,70,59,29.74,29.55,10,6,18,0.00
2013-4-10,45.3,38.5,35.6,39.8,34.8,31.0,91,87,79,29.94,29.72,11,6,18,0.38
2013-4-11,55.8,45.7,34.5,34.6,30.5,26.1,82,57,40,29.93,29.74,7,3,10,0.00
2013-4-12,65.1,50.6,38.7,36.9,32.9,27.9,84,53,33,29.99,29.79,7,2,12,0.00
2013-4-13,74.8,59.7,47.0,49.4,43.3,35.3,88,56,35,30.00,29.66,10,4,15,0.28
2013-4-14,80.9,69.5,59.0,58.0,50.7,44.4,66,52,39,29.67,29.41,12,6,24,0.00
2013-4-15,74.6,62.2,53.0,57.1,44.6,34.2,71,53,37,29.80,29.60,11,6,21,0.00
2013-4-16,56.1,51.9,49.2,49.2,45.8,41.7,89,80,66,29.93,29.77,8,5,15,0.00
2013-4-17,81.4,67.5,50.5,68.8,60.3,47.1,94,79,60,29.88,29.50,12,5,18,0.36
2013-4-18,45.4,42.7,40.6,38.5,32.0,25.7,85,66,54,30.05,29.72,10,7,18,0.64
2013-4-19,63.9,48.9,35.2,34.6,28.6,22.8,68,48,28,30.13,29.99,6,3,13,0.00
2013-4-20,72.2,58.8,45.6,40.5,36.3,29.9,71,46,22,30.11,29.96,8,3,13,0.00
2013-4-21,70.6,62.3,55.9,44.4,41.4,38.9,59,47,34,30.15,30.01,8,4,16,0.00
2013-4-22,76.4,64.9,52.1,53.6,47.0,40.9,68,53,44,30.07,29.77,11,5,17,0.00
2013-4-23,68.5,42.4,36.5,53.4,38.3,32.5,92,86,54,30.18,29.75,10,6,22,0.36
2013-4-24,59.4,46.2,34.0,32.5,29.5,24.3,86,56,31,30.30,30.17,8,3,16,0.00
2013-4-25,71.1,57.4,39.9,38.1,32.7,29.1,71,43,24,30.33,30.11,6,2,10,0.00
2013-4-26,62.6,56.2,52.9,52.0,46.8,38.5,94,73,41,30.13,30.00,8,4,14,0.27
2013-4-27,57.3,53.8,51.5,51.9,50.8,50.1,96,90,79,30.04,29.94,11,3,12,0.12
2013-4-28,80.9,72.4,57.8,58.9,55.8,50.6,77,57,41,29.97,29.75,5,3,11,0.01
2013-4-29,88.2,74.4,60.5,63.0,57.5,51.8,89,59,34,29.77,29.62,10,4,16,0.00
2013-4-30,84.6,75.0,63.8,60.2,56.1,50.5,79,54,32,29.73,29.64,10,5,15,0.00